Time;durP1;ratioP1;P1;durP2;ratioP2;P2;SDS_P1;SDS_P2;PMS_P1;PMS_P2;Temp;Humidity;BMP_temperature;BMP_pressure;BME280_temperature;BME280_humidity;BME280_pressure;Samples;Min_cycle;Max_cycle;Signal;HPM_P1;HPM_P2
2022/05/10 00:02:15;;;;;;;13.80;7.28;;;;;;;13.70;82.37;98729.25;5437140;26;20175;-79
2022/05/10 00:04:46;;;;;;;13.77;7.40;;;;;;;13.70;81.98;98724.06;5416341;26;20055;-79
2022/05/10 00:07:13;;;;;;;15.90;7.70;;;;;;;13.48;83.76;98723.34;5416751;26;20098;-79
2022/05/10 00:09:40;;;;;;;13.98;7.50;;;;;;;13.70;83.16;98718.91;5436882;26;20059;-79
2022/05/10 00:12:07;;;;;;;14.18;7.60;;;;;;;13.43;85.16;98728.75;5436950;26;20449;-79
2022/05/10 00:14:35;;;;;;;13.90;7.10;;;;;;;13.53;84.66;98717.06;5437083;26;20106;-79
2022/05/10 00:17:02;;;;;;;16.45;7.53;;;;;;;13.70;84.16;98723.25;5435782;26;20054;-79
2022/05/10 00:19:30;;;;;;;15.02;8.40;;;;;;;13.41;85.08;98722.78;5437106;26;20082;-79
2022/05/10 00:21:58;;;;;;;17.23;8.75;;;;;;;13.16;86.17;98716.94;5416713;26;20059;-79
2022/05/10 00:24:25;;;;;;;16.92;9.60;;;;;;;13.33;85.87;98717.09;5436593;26;20043;-79
2022/05/10 00:26:54;;;;;;;15.30;8.48;;;;;;;13.58;85.16;98717.69;5437071;26;20546;-79
2022/05/10 00:29:21;;;;;;;13.88;7.57;;;;;;;13.75;84.41;98711.75;5436857;26;20063;-79
2022/05/10 00:31:48;;;;;;;16.30;8.50;;;;;;;13.39;85.16;98713.37;5436576;26;20138;-79
2022/05/10 00:34:17;;;;;;;17.87;8.90;;;;;;;13.68;82.40;98710.34;5416688;26;20047;-79
2022/05/10 00:36:44;;;;;;;28.52;10.95;;;;;;;13.45;84.76;98707.94;5437182;26;20043;-79
2022/05/10 00:39:12;;;;;;;15.70;9.10;;;;;;;13.42;85.02;98708.06;5436378;26;20122;-79
2022/05/10 00:41:44;;;;;;;17.30;8.90;;;;;;;13.32;85.68;98710.22;5436847;26;20074;-79
2022/05/10 00:44:26;;;;;;;19.08;9.68;;;;;;;13.30;86.06;98722.41;5416661;26;20110;-79
2022/05/10 00:46:59;;;;;;;17.30;8.85;;;;;;;13.00;87.93;98715.00;5416258;26;20445;-79
2022/05/10 00:49:37;;;;;;;16.27;8.88;;;;;;;13.27;87.83;98723.38;5437162;26;20492;-79
2022/05/10 00:52:09;;;;;;;16.98;8.98;;;;;;;13.48;87.77;98719.00;5415991;26;20130;-79
2022/05/10 00:54:54;;;;;;;17.70;9.43;;;;;;;13.03;90.74;98717.44;5416610;26;20399;-79
2022/05/10 00:57:32;;;;;;;16.05;9.35;;;;;;;12.66;94.52;98712.97;5436825;26;20092;-79
2022/05/10 01:00:17;;;;;;;16.52;9.07;;;;;;;12.55;97.00;98702.19;5436263;26;20081;-79
2022/05/10 01:03:05;;;;;;;17.05;9.27;;;;;;;13.17;93.45;98703.06;5436886;26;20063;-79
2022/05/10 01:05:36;;;;;;;16.30;9.00;;;;;;;13.59;90.08;98702.97;5436792;26;20051;-79
2022/05/10 01:08:08;;;;;;;14.45;8.32;;;;;;;13.43;90.92;98700.22;5436478;26;20115;-79
2022/05/10 01:10:47;;;;;;;15.23;8.13;;;;;;;13.43;90.79;98704.56;5436719;26;20059;-79
2022/05/10 01:13:27;;;;;;;15.98;8.35;;;;;;;13.36;90.84;98692.78;5436425;26;20115;-79
2022/05/10 01:16:17;;;;;;;15.43;8.52;;;;;;;13.85;88.08;98694.03;5436384;26;20058;-79
2022/05/10 01:18:45;;;;;;;16.27;8.68;;;;;;;13.78;88.23;98696.06;5416054;26;20043;-79
2022/05/10 01:21:49;;;;;;;15.77;8.95;;;;;;;13.74;88.92;98686.75;5415706;26;20064;-79
2022/05/10 01:24:28;;;;;;;17.42;9.18;;;;;;;13.73;89.12;98686.81;5436696;26;20058;-80
2022/05/10 01:26:59;;;;;;;18.00;9.00;;;;;;;13.81;89.13;98682.94;5436355;26;20078;-79
2022/05/10 01:29:34;;;;;;;14.18;7.95;;;;;;;13.92;88.35;98690.22;5417129;26;20053;-79
2022/05/10 01:34:49;;;;;;;;;;;;;;;13.81;87.66;98689.87;5420460;26;20071;-79
2022/05/10 01:37:20;;;;;;;15.27;6.93;;;;;;;13.92;85.53;98687.63;5437711;26;20002;-79
2022/05/10 01:40:11;;;;;;;15.40;7.80;;;;;;;13.87;85.47;98677.47;5437615;26;20434;-79
2022/05/10 01:42:42;;;;;;;15.30;8.15;;;;;;;13.70;85.24;98687.78;5404111;26;20443;-79
2022/05/10 01:45:26;;;;;;;14.90;8.27;;;;;;;13.66;85.85;98688.84;5417309;26;20122;-79
2022/05/10 01:47:59;;;;;;;16.52;8.15;;;;;;;13.94;84.74;98691.03;5437341;26;20078;-80
2022/05/10 01:50:32;;;;;;;13.40;7.82;;;;;;;13.94;84.43;98692.78;5417214;26;20047;-79
2022/05/10 01:53:00;;;;;;;17.12;8.27;;;;;;;14.01;84.01;98684.63;5437749;26;20089;-79
2022/05/10 01:55:32;;;;;;;15.55;8.55;;;;;;;13.81;85.31;98680.34;5437189;26;20086;-79
2022/05/10 01:58:11;;;;;;;17.70;9.80;;;;;;;12.73;92.43;98678.12;5437458;26;20115;-79
2022/05/10 02:00:39;;;;;;;15.43;9.02;;;;;;;12.91;92.96;98678.28;5437433;26;20107;-79
2022/05/10 02:03:15;;;;;;;15.30;8.43;;;;;;;13.15;90.91;98681.56;5416908;26;20084;-79
2022/05/10 02:05:58;;;;;;;15.43;8.25;;;;;;;13.56;89.19;98682.37;5437776;26;20063;-79
2022/05/10 02:08:42;;;;;;;15.00;7.93;;;;;;;13.86;87.11;98673.22;5416898;26;20393;-79
2022/05/10 02:11:12;;;;;;;14.52;7.37;;;;;;;13.89;86.60;98674.81;5416817;26;20457;-79
2022/05/10 02:13:43;;;;;;;14.43;7.55;;;;;;;13.91;86.58;98665.19;5417191;26;20395;-79
2022/05/10 02:16:16;;;;;;;13.62;7.97;;;;;;;13.34;88.93;98664.34;5436886;26;20086;-79
2022/05/10 02:18:55;;;;;;;16.80;8.60;;;;;;;12.71;92.25;98659.22;5417082;26;20134;-79
2022/05/10 02:21:26;;;;;;;16.67;9.43;;;;;;;12.52;95.09;98660.88;5437337;26;20102;-79
2022/05/10 02:23:56;;;;;;;17.37;8.98;;;;;;;12.13;98.65;98646.06;5397985;26;20121;-79
2022/05/10 02:26:55;;;;;;;16.27;8.80;;;;;;;12.71;96.52;98659.22;5437644;26;20124;-79
2022/05/10 02:29:29;;;;;;;17.95;8.50;;;;;;;13.39;93.18;98664.12;5437478;26;20381;-79
2022/05/10 02:34:49;;;;;;;15.00;8.18;;;;;;;13.83;90.83;98654.38;5420283;26;20082;-79
2022/05/10 02:37:16;;;;;;;13.30;7.07;;;;;;;14.21;87.70;98655.12;5416647;26;20071;-79
2022/05/10 02:39:43;;;;;;;14.45;7.87;;;;;;;14.16;87.63;98657.13;5436931;26;20102;-79
2022/05/10 02:42:12;;;;;;;16.40;8.00;;;;;;;14.03;88.35;98654.25;5437395;26;20441;-79
2022/05/10 02:44:40;;;;;;;15.32;7.95;;;;;;;14.15;87.88;98656.28;5416695;26;20068;-80
2022/05/10 02:47:08;;;;;;;14.32;7.28;;;;;;;14.14;87.95;98648.56;5437544;26;20370;-79
2022/05/10 02:49:36;;;;;;;14.93;7.90;;;;;;;14.28;86.92;98648.75;5437271;26;20372;-79
2022/05/10 02:52:04;;;;;;;13.50;7.72;;;;;;;14.26;86.30;98648.00;5416528;26;20057;-79
2022/05/10 02:54:31;;;;;;;13.70;7.50;;;;;;;14.27;86.21;98647.06;5437473;26;20069;-79
2022/05/10 02:56:59;;;;;;;13.32;7.47;;;;;;;14.26;86.75;98652.34;5437445;26;20055;-80
2022/05/10 02:59:30;;;;;;;15.43;7.55;;;;;;;14.23;87.20;98648.12;5436843;26;20098;-79
2022/05/10 03:02:09;;;;;;;14.38;6.80;;;;;;;14.23;86.93;98648.12;5416955;26;20382;-79
2022/05/10 03:04:41;;;;;;;15.90;6.65;;;;;;;14.21;86.82;98647.34;5437434;26;20421;-80
2022/05/10 03:07:09;;;;;;;13.38;7.03;;;;;;;14.20;86.76;98640.47;5416572;26;20094;-79
2022/05/10 03:09:36;;;;;;;14.75;7.28;;;;;;;14.15;87.02;98645.06;5417112;26;20181;-79
2022/05/10 03:12:07;;;;;;;14.10;7.60;;;;;;;14.16;86.68;98647.59;5436887;26;20043;-79
2022/05/10 03:14:34;;;;;;;16.23;7.68;;;;;;;14.14;87.29;98646.81;5437358;26;20063;-79
2022/05/10 03:17:04;;;;;;;13.52;7.37;;;;;;;14.21;87.12;98647.34;5437121;26;20110;-79
2022/05/10 03:19:32;;;;;;;13.60;7.65;;;;;;;14.11;87.84;98640.91;5416831;26;20100;-79
2022/05/10 03:21:59;;;;;;;13.60;7.25;;;;;;;14.17;88.44;98641.47;5437047;26;20447;-79
2022/05/10 03:24:26;;;;;;;13.93;7.35;;;;;;;14.59;84.60;98637.75;5437325;26;20115;-79
2022/05/10 03:26:53;;;;;;;14.82;7.15;;;;;;;14.57;85.33;98637.00;5437072;26;20059;-79
2022/05/10 03:29:20;;;;;;;13.77;7.28;;;;;;;14.41;85.72;98630.81;5416746;26;20106;-79
2022/05/10 03:31:47;;;;;;;13.50;7.10;;;;;;;13.97;87.40;98636.37;5416909;26;20133;-79
2022/05/10 03:37:00;;;;;;;15.85;8.07;;;;;;;14.72;83.60;98630.19;5437319;26;20114;-79
2022/05/10 03:39:27;;;;;;;12.73;7.15;;;;;;;14.60;84.37;98642.03;5437107;26;20059;-79
2022/05/10 03:41:54;;;;;;;13.52;7.03;;;;;;;14.17;87.44;98641.47;5436641;26;20468;-79
2022/05/10 03:44:21;;;;;;;14.20;7.10;;;;;;;14.56;85.18;98644.81;5437245;26;20070;-79
2022/05/10 03:46:48;;;;;;;13.68;6.60;;;;;;;14.57;84.15;98641.31;5437296;26;20365;-79
2022/05/10 03:49:15;;;;;;;13.27;7.32;;;;;;;14.67;82.35;98635.63;5436439;26;20056;-79
2022/05/10 03:51:46;;;;;;;13.62;8.00;;;;;;;14.83;82.34;98638.25;5437109;26;20333;-79
2022/05/10 03:54:13;;;;;;;13.45;7.20;;;;;;;14.65;84.42;98627.03;5436801;26;20051;-80
2022/05/10 03:56:40;;;;;;;12.35;6.95;;;;;;;14.98;83.38;98640.06;5437127;26;20520;-79
2022/05/10 03:59:07;;;;;;;15.80;7.97;;;;;;;15.59;81.05;98641.22;5436968;26;20103;-79
2022/05/10 04:01:34;;;;;;;15.00;7.85;;;;;;;15.93;78.36;98645.47;5436619;26;20051;-80
2022/05/10 04:04:01;;;;;;;13.70;7.30;;;;;;;16.39;76.12;98645.53;5437189;26;20069;-79
2022/05/10 04:06:29;;;;;;;12.55;7.55;;;;;;;16.47;75.44;98651.94;5437154;26;20074;-80
2022/05/10 04:08:56;;;;;;;15.75;7.82;;;;;;;16.94;74.04;98656.22;5436578;26;20461;-80
2022/05/10 04:11:23;;;;;;;13.60;7.05;;;;;;;17.43;72.63;98660.25;5436986;26;20134;-80
2022/05/10 04:13:50;;;;;;;12.05;6.20;;;;;;;17.80;70.83;98658.87;5436966;26;20066;-80
2022/05/10 04:16:17;;;;;;;10.57;5.60;;;;;;;18.07;68.03;98659.72;5436438;26;20188;-80
2022/05/10 04:18:44;;;;;;;12.52;6.95;;;;;;;17.70;68.93;98656.00;5436919;26;20059;-80
2022/05/10 04:21:11;;;;;;;15.73;6.80;;;;;;;17.73;69.28;98660.19;5436859;26;20043;-80
2022/05/10 04:23:38;;;;;;;12.80;6.10;;;;;;;18.12;68.31;98659.47;5436740;26;20111;-80
2022/05/10 04:26:11;;;;;;;12.23;6.18;;;;;;;18.83;66.22;98661.81;5437071;26;20111;-79
2022/05/10 04:28:38;;;;;;;11.70;5.80;;;;;;;19.08;63.61;98663.59;5436807;26;20057;-80
2022/05/10 04:31:06;;;;;;;9.75;4.90;;;;;;;18.96;63.82;98660.03;5436630;26;20058;-80
2022/05/10 04:33:33;;;;;;;9.45;4.32;;;;;;;19.51;61.77;98660.66;5416547;26;20121;-80
2022/05/10 04:36:00;;;;;;;8.98;4.75;;;;;;;19.73;61.34;98665.28;5436885;26;20126;-80
2022/05/10 04:38:27;;;;;;;9.43;4.50;;;;;;;20.30;59.80;98668.13;5436189;26;20052;-80
2022/05/10 04:43:40;;;;;;;9.23;4.15;;;;;;;20.15;59.25;98661.38;5436588;26;20122;-80
2022/05/10 04:46:07;;;;;;;9.82;4.22;;;;;;;19.79;60.41;98673.53;5436886;26;20138;-80
2022/05/10 04:48:34;;;;;;;10.95;4.35;;;;;;;19.77;60.93;98674.56;5416250;26;20055;-80
2022/05/10 04:51:02;;;;;;;8.82;4.20;;;;;;;19.78;60.14;98678.84;5436319;26;20123;-79
2022/05/10 04:53:29;;;;;;;11.02;4.80;;;;;;;19.40;61.22;98678.88;5436898;26;20069;-80
2022/05/10 04:55:56;;;;;;;13.00;4.85;;;;;;;19.06;62.17;98682.03;5436868;26;20409;-80
2022/05/10 04:58:23;;;;;;;12.18;4.72;;;;;;;18.96;63.27;98685.34;5436271;26;20107;-80
2022/05/10 05:00:51;;;;;;;12.50;5.07;;;;;;;18.96;64.73;98677.50;5436686;26;20103;-80
2022/05/10 05:03:18;;;;;;;20.52;5.53;;;;;;;19.69;63.29;98690.00;5436979;26;20625;-80
2022/05/10 05:05:45;;;;;;;24.02;5.68;;;;;;;20.83;59.71;98691.38;5437375;26;20091;-80
2022/05/10 05:08:12;;;;;;;10.90;4.60;;;;;;;21.76;56.41;98692.97;5437560;26;20051;-80
2022/05/10 05:10:39;;;;;;;9.63;4.70;;;;;;;22.92;54.03;98690.69;5417293;26;20047;-80
2022/05/10 05:13:06;;;;;;;10.15;4.47;;;;;;;23.40;51.25;98693.66;5437356;26;20085;-80
2022/05/10 05:15:33;;;;;;;10.40;4.62;;;;;;;23.38;51.38;98690.28;5437449;26;20125;-80
2022/05/10 05:18:03;;;;;;;8.35;4.22;;;;;;;23.28;51.58;98690.22;5417285;26;20504;-80
2022/05/10 05:20:31;;;;;;;9.27;4.00;;;;;;;23.42;51.70;98697.00;5437126;26;20110;-80
2022/05/10 05:22:58;;;;;;;9.50;4.22;;;;;;;23.21;52.17;98694.38;5417329;26;20069;-80
2022/05/10 05:25:25;;;;;;;7.75;4.12;;;;;;;23.12;52.28;98696.94;5437376;26;20110;-81
2022/05/10 05:27:52;;;;;;;8.15;4.28;;;;;;;23.38;52.33;98699.03;5437431;26;20071;-80
2022/05/10 05:30:19;;;;;;;8.93;4.30;;;;;;;23.53;51.61;98699.53;5437624;26;20094;-80
2022/05/10 05:32:46;;;;;;;8.43;4.40;;;;;;;23.65;50.68;98705.59;5437329;26;20062;-81
2022/05/10 05:35:13;;;;;;;9.30;4.50;;;;;;;23.57;51.51;98700.09;5437651;26;20106;-80
2022/05/10 05:37:40;;;;;;;10.43;4.82;;;;;;;23.35;52.39;98695.81;5417221;26;20069;-80
2022/05/10 05:40:10;;;;;;;34.92;6.22;;;;;;;23.44;53.00;98696.84;5437135;26;20125;-81
2022/05/10 05:42:44;;;;;;;14.20;4.93;;;;;;;23.47;53.05;98696.56;5437716;26;20078;-81
2022/05/10 05:45:13;;;;;;;9.57;5.18;;;;;;;24.06;52.38;98702.00;5437600;26;20063;-81
2022/05/10 05:47:40;;;;;;;9.55;4.97;;;;;;;25.00;49.49;98710.31;5437065;26;20070;-80
2022/05/10 05:50:09;;;;;;;9.05;4.50;;;;;;;25.50;47.00;98699.50;5437496;26;20063;-81
2022/05/10 05:52:36;;;;;;;10.20;4.97;;;;;;;25.44;46.73;98708.84;5437355;26;20130;-81
2022/05/10 05:55:04;;;;;;;8.73;4.55;;;;;;;25.90;46.61;98704.53;5437058;26;20126;-80
2022/05/10 05:57:32;;;;;;;10.02;4.78;;;;;;;26.45;44.44;98707.16;5437407;26;20468;-81
2022/05/10 05:59:59;;;;;;;9.52;4.80;;;;;;;27.05;42.96;98715.38;5437403;26;20637;-81
2022/05/10 06:02:27;;;;;;;9.75;4.93;;;;;;;27.75;41.15;98710.03;5437043;26;20118;-80
2022/05/10 06:04:55;;;;;;;10.40;5.03;;;;;;;27.04;41.68;98711.06;5437731;26;20069;-81
2022/05/10 06:07:22;;;;;;;10.85;4.85;;;;;;;26.73;44.37;98710.59;5437274;26;20055;-82
2022/05/10 06:09:49;;;;;;;10.10;4.87;;;;;;;25.96;46.31;98717.19;5438291;26;20106;-82
2022/05/10 06:12:18;;;;;;;8.80;4.43;;;;;;;27.15;43.86;98708.16;5438422;26;20126;-81
2022/05/10 06:14:46;;;;;;;9.15;4.75;;;;;;;27.25;44.39;98714.19;5416354;26;20115;-79
2022/05/10 06:17:14;;;;;;;7.72;3.78;;;;;;;27.22;44.17;98719.81;5437025;26;20109;-79
2022/05/10 06:19:42;;;;;;;9.95;3.97;;;;;;;25.63;43.81;98715.91;5416936;26;20047;-79
2022/05/10 06:22:11;;;;;;;7.28;3.80;;;;;;;24.39;47.72;98716.66;5436795;26;20086;-80
2022/05/10 06:24:38;;;;;;;8.00;3.90;;;;;;;23.45;49.41;98722.22;5437568;26;20074;-78
2022/05/10 06:27:07;;;;;;;8.52;3.62;;;;;;;23.25;50.51;98719.47;5437387;26;20046;-78
2022/05/10 06:29:34;;;;;;;9.85;4.22;;;;;;;23.06;46.69;98716.69;5437016;26;20059;-78
2022/05/10 06:32:02;;;;;;;10.32;4.32;;;;;;;22.52;48.52;98720.25;5437355;26;20078;-79
2022/05/10 06:34:29;;;;;;;7.90;3.50;;;;;;;22.43;49.69;98723.59;5417137;26;20070;-79
2022/05/10 06:36:56;;;;;;;8.55;4.03;;;;;;;22.78;47.03;98716.34;5436994;26;20059;-78
2022/05/10 06:39:23;;;;;;;7.40;3.33;;;;;;;22.54;47.99;98726.19;5437322;26;20051;-80
2022/05/10 06:41:50;;;;;;;8.30;3.70;;;;;;;22.40;47.44;98731.75;5437085;26;20134;-80
2022/05/10 06:44:17;;;;;;;8.48;4.00;;;;;;;22.78;47.64;98720.75;5437111;26;20125;-80
2022/05/10 06:46:44;;;;;;;9.25;3.50;;;;;;;21.61;46.74;98721.28;5437351;26;20098;-80
2022/05/10 06:49:11;;;;;;;8.95;3.35;;;;;;;22.04;47.49;98728.44;5437301;26;20333;-80
2022/05/10 06:51:40;;;;;;;8.20;3.30;;;;;;;22.81;46.23;98729.22;5436933;26;20059;-80
2022/05/10 06:54:08;;;;;;;7.30;3.33;;;;;;;22.56;43.83;98732.19;5437333;26;20058;-81
2022/05/10 06:56:34;;;;;;;7.72;3.70;;;;;;;22.64;45.00;98731.56;5437095;26;20043;-81
2022/05/10 06:59:01;;;;;;;7.32;3.40;;;;;;;22.21;45.96;98729.75;5437078;26;20420;-80
2022/05/10 07:01:28;;;;;;;6.57;3.70;;;;;;;22.26;47.28;98727.59;5437246;26;20075;-80
2022/05/10 07:03:55;;;;;;;8.00;3.60;;;;;;;22.45;45.37;98732.22;5436883;26;20055;-81
2022/05/10 07:06:23;;;;;;;7.18;3.37;;;;;;;22.33;44.89;98726.16;5437159;26;20061;-81
2022/05/10 07:08:50;;;;;;;7.28;3.30;;;;;;;22.55;46.10;98741.06;5437124;26;20540;-81
2022/05/10 07:11:17;;;;;;;10.10;3.60;;;;;;;22.49;43.55;98737.09;5436896;26;20064;-80
2022/05/10 07:13:44;;;;;;;8.45;3.20;;;;;;;22.69;41.84;98737.28;5437288;26;20055;-80
2022/05/10 07:16:11;;;;;;;10.73;3.53;;;;;;;22.53;43.98;98735.06;5437010;26;20781;-81
2022/05/10 07:18:38;;;;;;;8.43;3.55;;;;;;;22.68;43.62;98735.63;5436688;26;20098;-81
2022/05/10 07:21:05;;;;;;;8.35;3.40;;;;;;;23.26;40.99;98728.19;5437119;26;20435;-80
2022/05/10 07:23:33;;;;;;;7.80;3.05;;;;;;;22.85;42.91;98729.84;5437036;26;20471;-79
2022/05/10 07:26:03;;;;;;;9.60;3.85;;;;;;;23.38;42.54;98725.34;5436608;26;20074;-80
2022/05/10 07:28:32;;;;;;;9.93;3.75;;;;;;;23.63;41.98;98731.22;5437176;26;20043;-79
2022/05/10 07:30:59;;;;;;;7.57;3.60;;;;;;;23.94;43.61;98734.69;5437010;26;20110;-80
2022/05/10 07:33:27;;;;;;;6.82;3.30;;;;;;;23.65;42.76;98730.13;5436912;26;20119;-80
2022/05/10 07:38:41;;;;;;;7.25;3.20;;;;;;;24.43;38.81;98731.22;5436936;26;20428;-81
2022/05/10 07:41:09;;;;;;;11.18;3.70;;;;;;;23.99;39.78;98731.66;5437191;26;20067;-80
2022/05/10 07:43:37;;;;;;;7.00;3.22;;;;;;;24.67;39.02;98730.88;5437086;26;20063;-80
2022/05/10 07:46:05;;;;;;;8.15;3.53;;;;;;;25.71;37.06;98731.88;5416518;26;20138;-81
2022/05/10 07:48:33;;;;;;;8.57;3.53;;;;;;;25.52;38.64;98730.13;5416703;26;20054;-80
2022/05/10 07:51:02;;;;;;;7.53;2.97;;;;;;;25.34;37.90;98726.53;5416866;26;20066;-80
2022/05/10 07:53:31;;;;;;;8.15;3.50;;;;;;;25.61;36.70;98726.59;5436928;26;20102;-80
2022/05/10 07:56:00;;;;;;;8.43;3.30;;;;;;;25.44;40.34;98737.09;5437144;26;20061;-80
2022/05/10 07:58:27;;;;;;;7.85;3.30;;;;;;;25.83;38.09;98737.81;5437171;26;20074;-80
2022/05/10 08:00:54;;;;;;;7.97;3.30;;;;;;;26.85;35.24;98732.38;5436837;26;20110;-80
2022/05/10 08:03:23;;;;;;;6.15;3.20;;;;;;;26.98;34.63;98733.63;5437050;26;20055;-80
2022/05/10 08:05:52;;;;;;;6.95;3.10;;;;;;;26.55;37.14;98733.56;5437252;26;20051;-80
2022/05/10 08:08:19;;;;;;;7.65;3.30;;;;;;;25.75;37.47;98738.56;5436677;26;20061;-79
2022/05/10 08:10:47;;;;;;;9.48;3.20;;;;;;;26.12;37.21;98742.97;5431312;26;149720;-80
2022/05/10 08:13:21;;;;;;;11.23;3.83;;;;;;;26.04;36.39;98743.69;5437085;26;20074;-80
2022/05/10 08:15:50;;;;;;;9.93;3.83;;;;;;;26.53;36.75;98739.84;5436440;26;20118;-81
2022/05/10 08:18:19;;;;;;;7.78;3.60;;;;;;;25.90;38.76;98731.81;5437058;26;20051;-80
2022/05/10 08:20:46;;;;;;;7.50;3.90;;;;;;;26.01;38.28;98741.34;5436504;26;20137;-80
2022/05/10 08:23:21;;;;;;;7.93;3.67;;;;;;;25.70;40.30;98730.22;5436894;26;20125;-80
2022/05/10 08:25:50;;;;;;;8.65;3.55;;;;;;;26.34;38.01;98732.00;5437199;26;20058;-81
2022/05/10 08:28:16;;;;;;;7.65;3.92;;;;;;;26.40;36.54;98733.25;5436542;26;20114;-80
2022/05/10 08:30:48;;;;;;;7.70;3.33;;;;;;;26.93;37.80;98729.81;5437126;26;20423;-81
2022/05/10 08:33:20;;;;;;;8.38;3.53;;;;;;;27.38;35.46;98727.84;5417258;26;20063;-81
2022/05/10 08:35:48;;;;;;;9.43;3.80;;;;;;;27.88;34.83;98734.31;5416183;26;20051;-81
2022/05/10 08:38:16;;;;;;;7.15;3.67;;;;;;;26.06;37.67;98723.25;5436306;26;20118;-81
2022/05/10 08:41:00;;;;;;;7.30;3.37;;;;;;;26.45;37.32;98730.97;5436948;26;20067;-80
2022/05/10 08:43:32;;;;;;;8.45;3.67;;;;;;;27.30;35.25;98729.59;5436573;26;20412;-81
2022/05/10 08:45:59;;;;;;;8.27;3.80;;;;;;;28.41;32.67;98730.56;5416609;26;20456;-80
2022/05/10 08:48:28;;;;;;;7.35;3.83;;;;;;;27.21;37.48;98725.22;5436662;26;20042;-81
2022/05/10 08:50:56;;;;;;;8.35;3.80;;;;;;;27.73;34.52;98728.75;5436495;26;20063;-81
2022/05/10 08:53:23;;;;;;;8.38;4.00;;;;;;;28.07;35.23;98726.06;5417033;26;20121;-81
2022/05/10 08:56:03;;;;;;;7.62;3.67;;;;;;;28.30;34.53;98726.38;5436510;26;20057;-80
2022/05/10 08:58:56;;;;;;;8.77;4.00;;;;;;;28.59;32.97;98720.63;5436765;26;20052;-80
2022/05/10 09:01:43;;;;;;;8.75;4.12;;;;;;;26.50;36.10;98726.09;5436852;26;20123;-81
2022/05/10 09:04:42;;;;;;;7.93;3.90;;;;;;;27.73;33.83;98719.97;5436389;26;20055;-80
2022/05/10 09:07:30;;;;;;;9.23;3.92;;;;;;;27.91;34.42;98726.84;5418792;26;20061;-80
2022/05/10 09:10:17;;;;;;;8.30;4.20;;;;;;;28.07;36.69;98711.97;5436298;26;20111;-80
2022/05/10 09:12:53;;;;;;;8.77;4.28;;;;;;;26.14;36.75;98720.69;5436866;26;20079;-80
2022/05/10 09:15:20;;;;;;;9.75;4.25;;;;;;;25.47;40.63;98713.00;5436642;26;20063;-80
2022/05/10 09:17:47;;;;;;;8.57;4.47;;;;;;;25.32;40.01;98710.84;5435824;26;20126;-80
2022/05/10 09:20:14;;;;;;;9.48;4.32;;;;;;;26.29;37.76;98713.09;5436453;26;20098;-80
2022/05/10 09:23:10;;;;;;;10.20;4.10;;;;;;;27.43;36.89;98711.47;5434916;26;20063;-80
2022/05/10 09:25:40;;;;;;;8.95;4.10;;;;;;;27.44;36.24;98707.88;5415915;26;20096;-80
2022/05/10 09:28:20;;;;;;;8.32;3.95;;;;;;;27.75;35.99;98715.31;5436508;26;20133;-80
2022/05/10 09:36:44;;;;;;;8.02;4.30;;;;;;;28.58;36.05;98716.31;5436623;26;20059;-79
2022/05/10 09:39:28;;;;;;;10.95;4.28;;;;;;;26.62;38.42;98714.28;5432131;26;20047;-79
2022/05/10 09:41:55;;;;;;;8.85;4.10;;;;;;;27.29;35.33;98704.94;5416056;26;20057;-81
2022/05/10 09:44:28;;;;;;;11.50;4.20;;;;;;;28.64;33.67;98701.56;5436276;26;20111;-81
2022/05/10 09:47:13;;;;;;;7.93;3.87;;;;;;;28.46;33.07;98699.84;5415698;26;20118;-80
2022/05/10 09:49:41;;;;;;;8.68;3.85;;;;;;;28.34;33.23;98695.03;5437052;26;20362;-81
2022/05/10 09:52:21;;;;;;;8.88;4.07;;;;;;;28.87;35.50;98697.25;5416737;26;20094;-80
2022/05/10 09:54:51;;;;;;;11.80;3.70;;;;;;;27.56;36.46;98697.81;5437651;26;20067;-80
2022/05/10 09:57:46;;;;;;;8.05;3.90;;;;;;;27.35;37.57;98695.53;5437493;26;20059;-79
2022/05/10 10:00:14;;;;;;;8.40;4.12;;;;;;;27.19;35.65;98687.47;5436064;26;20066;-81
2022/05/10 10:02:43;;;;;;;8.90;3.45;;;;;;;27.49;36.22;98684.34;5441157;26;20063;-80
2022/05/10 10:05:33;;;;;;;8.45;4.00;;;;;;;28.39;35.32;98688.25;5440239;26;20051;-80
2022/05/10 10:08:01;;;;;;;7.03;3.53;;;;;;;28.37;35.08;98681.44;5428547;26;20378;-80
2022/05/10 10:10:36;;;;;;;8.25;3.90;;;;;;;27.39;35.60;98678.34;5441725;26;20110;-80
2022/05/10 10:13:32;;;;;;;9.02;3.83;;;;;;;27.15;35.79;98668.44;5443749;26;20098;-80
2022/05/10 10:16:00;;;;;;;8.05;3.60;;;;;;;27.40;35.68;98669.41;5442923;26;20075;-80
2022/05/10 10:18:43;;;;;;;9.38;3.80;;;;;;;26.58;38.00;98669.75;5417745;26;20070;-80
2022/05/10 10:21:19;;;;;;;8.45;3.87;;;;;;;26.68;37.05;98670.50;5437222;26;20051;-79
2022/05/10 10:23:51;;;;;;;7.78;3.60;;;;;;;26.05;37.25;98665.22;5417463;26;20047;-79
2022/05/10 10:26:56;;;;;;;7.43;3.92;;;;;;;26.88;36.53;98666.69;5437586;26;20417;-79
2022/05/10 10:29:42;;;;;;;11.27;3.95;;;;;;;25.92;38.25;98663.75;5436208;26;20402;-81
2022/05/10 10:32:13;;;;;;;8.88;3.85;;;;;;;25.91;39.01;98664.72;5416962;26;20071;-81
2022/05/10 10:34:51;;;;;;;8.07;4.00;;;;;;;25.56;38.79;98665.44;5437173;26;20122;-80
2022/05/10 10:37:28;;;;;;;8.70;4.43;;;;;;;25.06;43.14;98657.78;5416946;26;20063;-80
2022/05/10 10:40:16;;;;;;;7.55;3.95;;;;;;;24.10;49.67;98661.19;5417009;26;20062;-80
2022/05/10 10:42:49;;;;;;;;;;;;;;;23.40;46.73;98669.13;5437369;26;20096;-80
2022/05/10 10:45:17;;;;;;;11.65;4.37;;;;;;;23.80;47.64;98667.34;5437563;26;20010;-80
2022/05/10 10:47:53;;;;;;;10.40;4.60;;;;;;;23.92;50.13;98671.53;5437295;26;20071;-80
2022/05/10 10:50:31;;;;;;;11.98;4.47;;;;;;;24.57;45.75;98660.59;5437030;26;20126;-80
2022/05/10 10:52:59;;;;;;;10.93;4.60;;;;;;;24.79;46.62;98660.31;5417214;26;20070;-80
2022/05/10 10:56:03;;;;;;;11.85;4.40;;;;;;;24.06;51.66;98664.25;5437085;26;20059;-81
2022/05/10 10:58:48;;;;;;;10.40;5.22;;;;;;;24.80;51.12;98668.09;5437090;26;20074;-80
2022/05/10 11:01:24;;;;;;;11.32;4.80;;;;;;;24.75;52.69;98664.19;5438496;26;20063;-81
2022/05/10 11:04:29;;;;;;;8.48;4.00;;;;;;;23.51;59.25;98661.13;5438854;26;20503;-80
2022/05/10 11:06:56;;;;;;;11.68;3.35;;;;;;;23.52;54.44;98650.47;5437754;26;20096;-80
2022/05/10 11:09:38;;;;;;;9.00;2.90;;;;;;;23.25;55.48;98651.00;5436914;26;20500;-80
2022/05/10 11:12:34;;;;;;;5.93;2.70;;;;;;;23.27;52.67;98649.06;5434247;26;20054;-80
2022/05/10 11:15:07;;;;;;;5.60;2.67;;;;;;;23.03;46.19;98632.75;5437267;26;20457;-80
2022/05/10 11:18:00;;;;;;;5.62;2.50;;;;;;;22.99;49.18;98629.53;5436548;26;20098;-80
2022/05/10 11:21:02;;;;;;;4.55;2.40;;;;;;;23.30;48.50;98626.94;5427500;26;20396;-81
2022/05/10 11:23:43;;;;;;;5.37;2.12;;;;;;;23.96;46.66;98624.69;5436444;26;20123;-80
2022/05/10 11:26:25;;;;;;;4.68;2.30;;;;;;;24.87;41.85;98620.00;5437337;26;20063;-80
2022/05/10 11:29:02;;;;;;;4.03;2.22;;;;;;;25.76;36.24;98623.09;5436182;26;20398;-80
2022/05/10 11:32:00;;;;;;;4.80;2.28;;;;;;;25.78;38.89;98631.69;5436582;26;20118;-81
2022/05/10 11:34:48;;;;;;;5.37;2.60;;;;;;;26.43;38.25;98625.31;5436901;26;20058;-80
2022/05/10 11:37:32;;;;;;;8.70;2.33;;;;;;;26.59;38.58;98616.69;5438591;26;20109;-80
2022/05/10 11:40:28;;;;;;;6.87;2.70;;;;;;;26.63;36.43;98614.56;5400812;26;20115;-81
2022/05/10 11:43:21;;;;;;;7.72;2.78;;;;;;;26.08;40.07;98612.88;5435205;26;20114;-80
2022/05/10 11:46:03;;;;;;;6.05;2.28;;;;;;;25.66;40.33;98613.37;5433590;26;20086;-80
2022/05/10 11:49:06;;;;;;;9.75;2.60;;;;;;;25.35;42.72;98611.97;5436417;26;20054;-80
2022/05/10 11:51:54;;;;;;;5.30;2.60;;;;;;;24.61;40.66;98609.22;5433338;26;20047;-80
2022/05/10 11:54:53;;;;;;;4.95;2.50;;;;;;;24.48;40.87;98610.34;5437105;26;20115;-80
2022/05/10 11:57:21;;;;;;;4.50;2.35;;;;;;;24.39;39.30;98597.97;5416339;26;20379;-80
2022/05/10 11:59:48;;;;;;;5.75;2.80;;;;;;;24.77;43.88;98602.38;5416321;26;20055;-80
2022/05/10 12:02:27;;;;;;;7.55;3.10;;;;;;;24.81;44.77;98598.50;5434958;26;20101;-80
2022/05/10 12:05:23;;;;;;;7.32;3.17;;;;;;;24.96;43.97;98590.13;5436819;26;20058;-80
2022/05/10 12:07:55;;;;;;;6.32;2.80;;;;;;;25.46;41.16;98580.09;5428526;26;20483;-80
2022/05/10 12:10:21;;;;;;;6.82;3.12;;;;;;;25.74;38.39;98580.12;5437201;26;20109;-80
2022/05/10 12:12:51;;;;;;;8.20;2.75;;;;;;;26.19;39.13;98572.16;5436568;26;20052;-81
2022/05/10 12:21:20;;;;;;;6.70;2.87;;;;;;;27.16;36.27;98565.94;5436536;26;20102;-80